Reklama

Seznam meteostanic a jejich METAR

Vyhledat místa podle abecedy:
A B C D E F G H I J K L M N O P Q R S T U V W X Y Z

Filtrovat:

ID stanice:
a/nebo
Název místa (fulltext):
 
Místo (ID)Naposledy načteno 
Brussels (EBBR) 15.12.2019 20:50 UTC Zobrazit METAR
EBBR 152050Z 19008KT CAVOK 06/02 Q1006 NOSIG
Bucharest (LRBS) 15.12.2019 21:00 UTC Zobrazit METAR
LRBS 152100Z 29001KT 9999 MIFG NSC 06/03 Q1021 NOSIG
Budapest (LHBP) 15.12.2019 21:00 UTC Zobrazit METAR
LHBP 152100Z 12003KT 5000 BR NSC 02/01 Q1016 NOSIG
Buenos Aires (SABE) 15.12.2019 21:00 UTC Zobrazit METAR
SABE 152100Z 15008KT CAVOK 22/16 Q1006 NOSIG
Bujumbura (HBBA) 14.12.2019 16:00 UTC Zobrazit METAR
HBBA 141600Z 18006KT 9999 FEW025 27/21 Q 1010 NOSIG
Burgas (LBBG) 15.12.2019 21:00 UTC Zobrazit METAR
LBBG 152100Z VRB02KT CAVOK 04/02 Q1024 NOSIG
Bydgoszcz (EPBY) 15.12.2019 21:00 UTC Zobrazit METAR
EPBY 152100Z 24011KT CAVOK 05/02 Q1005
Cairo (HECA) 15.12.2019 21:00 UTC Zobrazit METAR
HECA 152100Z 32004KT CAVOK 15/09 Q1018 NOSIG
Canberra (YSCB) 15.12.2019 13:00 UTC Zobrazit METAR
YSCB 151300Z AUTO 29008KT 9999 // BKN120 23/M04 Q1010
Caracas (SVMP) Zatím nenačteno  
Cayenne (SOCA) 15.12.2019 21:00 UTC Zobrazit METAR
SOCA 152100Z AUTO VRB03KT 9999 FEW016 SCT064 BKN180 26/24 Q1010 TEMPO 2000 RA
Charlotte Amalie (TIST) 15.12.2019 20:53 UTC Zobrazit METAR
TIST 152053Z 05010KT 10SM FEW029 SCT040 BKN050 29/22 A3001 RMK AO2 SLP162 T02890222 53005
Chisinau (LUKK) 15.12.2019 21:00 UTC Zobrazit METAR
LUKK 152100Z 25005KT CAVOK 06/01 Q1019 R26/CLRD// NOSIG
Colombo (VCBI) 15.12.2019 18:10 UTC Zobrazit METAR
VCBI 151810Z VRB02KT CAVOK 25/22 Q1011 NOSIG
Conakry (GUCY) 15.12.2019 19:00 UTC Zobrazit METAR
GUCY 151900Z 27004KT 5000 HZ NSC 28/24 Q1009 NOSIG
Constanta (LRCK) 15.12.2019 21:00 UTC Zobrazit METAR
LRCK 152100Z 24008KT CAVOK 03/02 Q1022 NOSIG
Constantine (DABC) 15.12.2019 21:00 UTC Zobrazit METAR
DABC 152100Z 23008KT CAVOK 10/04 Q1020
Copenhagen (EKCH) 15.12.2019 10:50 UTC Zobrazit METAR
EKCH 151050Z AUTO 17025KT 9999 RA OVC010/// 04/03 Q0987 TEMPO 180020G38KT RA BKN010 FEW040CB
Cork (EICK) 15.12.2019 16:00 UTC Zobrazit METAR
EICK 151600Z 21012KT 9999 SCT020 05/03 Q0986 NOSIG
Cotonou (DBBB) 15.12.2019 21:00 UTC Zobrazit METAR
DBBB 152100Z 19004KT 9999 FEW012 28/25 Q1011 NOSIG
Curacao Island (TNCC) 15.12.2019 20:00 UTC Zobrazit METAR
TNCC 152000Z AUTO 11014KT 9999 FEW021 30/23 Q1011 NOSIG
Dakar (GOOY) 15.12.2019 21:00 UTC Zobrazit METAR
GOOY 152100Z 32004KT 8000 NSC 23/21 Q1012
Damascus (OSDI) 15.12.2019 21:00 UTC Zobrazit METAR
OSDI 152100Z 03006KT 9999 FEW030 SCT100 08/05 Q1020
Debrecen (LHDC) 15.12.2019 20:45 UTC Zobrazit METAR
LHDC 152045Z AUTO 18006KT 8000 NSC 05/04 Q1017 NOSIG
Delhi (VIDP) 15.12.2019 15:00 UTC Zobrazit METAR
VIDP 151500Z 25005KT 2000 BR FEW100 13/12 Q1019 NOSIG
Dhaka (VGZR) Zatím nenačteno  
Diego Garcia (FJDG) 15.12.2019 18:55 UTC Zobrazit METAR
FJDG 151855Z 05007KT 9999 FEW022 SCT100 SCT250 28/23 A2982 RMK SLP095 T02770233
Djibouti (HDAM) 15.12.2019 16:00 UTC Zobrazit METAR
HDAM 151600Z 09003KT 9999 FEW020 27/23 Q1014
Dnipropetrovs'k (UKDD) 12.08.2013 14:00 UTC Zobrazit METAR
UKDD 121400Z CAVOK 33/13 Q1012 08090070 NOSIG
Dodoma (HTDO) 15.12.2019 20:00 UTC Zobrazit METAR
HTDO 152000Z 09007KT 9999 FEW022 23/18 Q1017 NOSIG
Doha (OTBD) 15.12.2019 20:00 UTC Zobrazit METAR
OTBD 152000Z 09014KT 9999 FEW040 SCT100 22/18 Q1014 NOSIG
Dortmund (EDLW) 15.12.2019 20:50 UTC Zobrazit METAR
EDLW 152050Z 19011KT CAVOK 06/01 Q1007
Dresden (EDDC) 15.12.2019 20:50 UTC Zobrazit METAR
EDDC 152050Z 23009KT 200V260 CAVOK 07/03 Q1009 NOSIG
Dublin (EIDW) 15.12.2019 21:00 UTC Zobrazit METAR
EIDW 152100Z 22015KT 190V250 9999 FEW017 SCT250 05/M00 Q0986 NOSIG
Dubrovnik (LDDU) 15.12.2019 21:00 UTC Zobrazit METAR
LDDU 152100Z 08008KT CAVOK 12/05 Q1022 NOSIG
Dushanbe (UTDD) Zatím nenačteno  
Dusseldorf (EDDL) 15.12.2019 20:50 UTC Zobrazit METAR
EDDL 152050Z 15007KT CAVOK 05/01 Q1007 NOSIG
Dzaoudzi (FMCZ) 15.12.2019 19:00 UTC Zobrazit METAR
FMCZ 151900Z AUTO 27004KT CAVOK 29/25 Q1010 NOSIG
Edinburgh (EGPH) 15.12.2019 20:50 UTC Zobrazit METAR
EGPH 152050Z 20004KT 9999 SCT025 BKN040 03/01 Q0988
Eindhoven (EHEH) 15.12.2019 20:55 UTC Zobrazit METAR
EHEH 152055Z AUTO 19008KT 9999 OVC190 05/02 Q1006 BLU 20009KT CAVOK
Entebbe (HUEN) 31.10.2019 10:00 UTC Zobrazit METAR
HUEN 311000Z 27008KT 9999 FEW021 FEW023 25/19 Q1018
Esbjerg (EKEB) 15.12.2019 20:50 UTC Zobrazit METAR
EKEB 152050Z AUTO 23014KT 9999 FEW047/// 06/02 Q0997
Faro (LPFR) 15.12.2019 21:00 UTC Zobrazit METAR
LPFR 152100Z 15007KT 9999 FEW010 SCT018 15/14 Q1009
Florence (LIRQ) 15.12.2019 20:50 UTC Zobrazit METAR
LIRQ 152050Z 08004KT 9999 SCT060 12/10 Q1019
Foggia, Gino Lisa (LIBF) 15.12.2019 14:50 UTC Zobrazit METAR
LIBF 151450Z 20009KT CAVOK 16/10 Q1017
Fort de France (TFFF) 15.12.2019 21:00 UTC Zobrazit METAR
TFFF 152100Z AUTO 09009KT 9999 FEW025 28/23 Q1014 NOSIG
Frankfurt/ Main (EDDF) 15.12.2019 20:50 UTC Zobrazit METAR
EDDF 152050Z 19008KT 9999 FEW026 08/05 Q1010 NOSIG
Freetown (GFLL) 06.12.2019 19:00 UTC Zobrazit METAR
GFLL 061900Z 27003KT 8000 HZ BKN012 30/23 Q1009
Funafuti (NGFU) 15.12.2019 10:00 UTC Zobrazit METAR
NGFU 151000Z 23003KT 9999 FEW020 BKN300 29/25 Q1007
Gaborone (FBSK) 15.12.2019 21:00 UTC Zobrazit METAR
FBSK 152100Z 19008KT CAVOK 25/07 Q1016 NOSIG
Předchozí 1 2 3 4 5 ... 9 Další
Reklama

Počasí na Váš email

Emaily jsou bez reklamy a bez spamu



Odhlásit newsletter

Reklama


Lunární kalendář

  • 19.12.
  • 26.12.
  • 03.01.
  • 10.01.



Reklama


Reklama
Povinné ručení
Reklama



Reklama